Roanoke Regional Woodrum Field
KROA : now visible

Airfield :











YOU CAN JOIN US ON...

 
LOGIN :

Register | Disclaimer

   EN    FR    IT 

 









Legend :    VFR   Marginal VFR   IFR   Intensive IFR   Very Intensive IFR
Visi :
Ceiling :
>= 8 km
>= 3000ft
5 to 8 km
1000 to 3000 ft
1500m to 5 km
500 to 1000 ft
800 to 1500m
200 to 500 ft
< 800m
< 200 ft
Symbols :   Thunderstorms  Fog  Heavy snow  Heavy precipitations  Wind > 20 kt






- Airport Elevation : 1175 ft
- IATA code : ROA


KROA - Roanoke Regional Woodrum Field

CURRENT METAR :
  • 230154Z 13003KT 10SM CLR 20/14 A3023 RMK AO2 SLP229 T02000144

EXPIRED METARs :
  • 230054Z 11003KT 10SM CLR 21/14 A3023 RMK AO2 SLP230 T02060144
  • 222354Z 12006KT 10SM FEW060 22/14 A3022 RMK AO2 SLP227 T02220144 10272 20222 53008

TAF KROA
Valid from the 23 at 00:00 until the 24 at 00:00 UTC


222320Z 2300/2324 14003KT P6SM SKC
FM231000 00000KT 5SM BR SCT009
FM231600 16006KT P6SM SCT060
KZDC FIR / North America



MET'MAP, your aeronautical weather chart ! - Copyright ORBIFLY December 2007 - Disclaimer

ORBIFLY MET'MAP TEAM :

Programming & Development : Alexandra Zaïnal
Concept & original design : Baudouin d'Aumeries
Assistance for programming : Marc-Olivier Méhu
Technical & hardware support : Manuel Goepfert

Contact : metmap@orbifly.com




SOURCES & CREDITS :

   NOAA       Earth
Advisory